sensor_id;sensor_type;location;lat;lon;timestamp;P1;durP1;ratioP1;P2;durP2;ratioP2
72949;SDS011;62720;45.710;9.590;2022-09-09T00:00:32;10.25;;;3.03;;
72949;SDS011;62720;45.710;9.590;2022-09-09T00:03:02;9.02;;;3.03;;
72949;SDS011;62720;45.710;9.590;2022-09-09T00:05:51;8.40;;;2.92;;
72949;SDS011;62720;45.710;9.590;2022-09-09T00:08:19;7.30;;;2.63;;
72949;SDS011;62720;45.710;9.590;2022-09-09T00:10:45;9.50;;;3.15;;
72949;SDS011;62720;45.710;9.590;2022-09-09T00:16:15;7.50;;;3.13;;
72949;SDS011;62720;45.710;9.590;2022-09-09T00:23:34;8.98;;;3.00;;
72949;SDS011;62720;45.710;9.590;2022-09-09T00:26:19;9.32;;;2.60;;
72949;SDS011;62720;45.710;9.590;2022-09-09T00:28:52;8.95;;;2.90;;
72949;SDS011;62720;45.710;9.590;2022-09-09T00:31:25;7.75;;;2.92;;
72949;SDS011;62720;45.710;9.590;2022-09-09T00:33:51;7.53;;;3.15;;
72949;SDS011;62720;45.710;9.590;2022-09-09T00:36:18;8.40;;;3.35;;
72949;SDS011;62720;45.710;9.590;2022-09-09T00:38:57;8.32;;;3.05;;
72949;SDS011;62720;45.710;9.590;2022-09-09T00:44:25;7.65;;;2.92;;
72949;SDS011;62720;45.710;9.590;2022-09-09T00:59:55;12.18;;;4.07;;
72949;SDS011;62720;45.710;9.590;2022-09-09T01:04:47;8.25;;;3.05;;
72949;SDS011;62720;45.710;9.590;2022-09-09T01:07:21;10.97;;;2.80;;
72949;SDS011;62720;45.710;9.590;2022-09-09T01:12:16;9.90;;;3.20;;
72949;SDS011;62720;45.710;9.590;2022-09-09T01:14:47;13.45;;;3.53;;
72949;SDS011;62720;45.710;9.590;2022-09-09T01:17:34;9.73;;;3.13;;
72949;SDS011;62720;45.710;9.590;2022-09-09T01:20:14;7.70;;;2.85;;
72949;SDS011;62720;45.710;9.590;2022-09-09T01:28:11;8.50;;;2.83;;
72949;SDS011;62720;45.710;9.590;2022-09-09T01:30:38;11.60;;;3.33;;
72949;SDS011;62720;45.710;9.590;2022-09-09T01:33:03;8.50;;;2.92;;
72949;SDS011;62720;45.710;9.590;2022-09-09T01:37:57;9.32;;;3.35;;
72949;SDS011;62720;45.710;9.590;2022-09-09T01:40:23;7.53;;;2.53;;
72949;SDS011;62720;45.710;9.590;2022-09-09T01:42:48;10.45;;;2.40;;
72949;SDS011;62720;45.710;9.590;2022-09-09T01:45:14;14.05;;;3.60;;
72949;SDS011;62720;45.710;9.590;2022-09-09T01:47:39;7.13;;;2.80;;
72949;SDS011;62720;45.710;9.590;2022-09-09T01:50:05;9.35;;;3.00;;
72949;SDS011;62720;45.710;9.590;2022-09-09T01:52:31;8.73;;;2.75;;
72949;SDS011;62720;45.710;9.590;2022-09-09T01:54:59;8.90;;;2.95;;
72949;SDS011;62720;45.710;9.590;2022-09-09T01:57:27;7.68;;;2.80;;
72949;SDS011;62720;45.710;9.590;2022-09-09T02:02:26;8.18;;;3.10;;
72949;SDS011;62720;45.710;9.590;2022-09-09T02:10:03;8.93;;;2.80;;
72949;SDS011;62720;45.710;9.590;2022-09-09T02:12:30;9.55;;;3.42;;
72949;SDS011;62720;45.710;9.590;2022-09-09T02:14:59;6.90;;;3.08;;
72949;SDS011;62720;45.710;9.590;2022-09-09T02:17:27;8.43;;;3.22;;
72949;SDS011;62720;45.710;9.590;2022-09-09T02:19:55;10.80;;;3.15;;
72949;SDS011;62720;45.710;9.590;2022-09-09T02:22:22;7.80;;;3.13;;
72949;SDS011;62720;45.710;9.590;2022-09-09T02:24:48;8.07;;;2.90;;
72949;SDS011;62720;45.710;9.590;2022-09-09T02:27:15;8.88;;;3.05;;
72949;SDS011;62720;45.710;9.590;2022-09-09T02:29:42;7.75;;;2.80;;
72949;SDS011;62720;45.710;9.590;2022-09-09T02:32:29;8.63;;;3.28;;
72949;SDS011;62720;45.710;9.590;2022-09-09T02:35:00;8.18;;;3.20;;
72949;SDS011;62720;45.710;9.590;2022-09-09T02:37:29;9.88;;;3.13;;
72949;SDS011;62720;45.710;9.590;2022-09-09T02:39:56;8.73;;;2.90;;
72949;SDS011;62720;45.710;9.590;2022-09-09T02:42:22;9.52;;;3.00;;
72949;SDS011;62720;45.710;9.590;2022-09-09T02:44:48;9.85;;;3.25;;
72949;SDS011;62720;45.710;9.590;2022-09-09T02:50:03;10.30;;;3.67;;
72949;SDS011;62720;45.710;9.590;2022-09-09T02:54:59;7.45;;;2.90;;
72949;SDS011;62720;45.710;9.590;2022-09-09T02:57:28;9.23;;;3.10;;
72949;SDS011;62720;45.710;9.590;2022-09-09T02:59:57;8.77;;;3.15;;
72949;SDS011;62720;45.710;9.590;2022-09-09T03:02:22;7.65;;;3.10;;
72949;SDS011;62720;45.710;9.590;2022-09-09T03:04:47;9.53;;;2.90;;
72949;SDS011;62720;45.710;9.590;2022-09-09T03:07:16;9.23;;;2.90;;
72949;SDS011;62720;45.710;9.590;2022-09-09T03:09:42;7.57;;;3.28;;
72949;SDS011;62720;45.710;9.590;2022-09-09T03:12:07;7.82;;;3.17;;
72949;SDS011;62720;45.710;9.590;2022-09-09T03:14:32;10.70;;;3.90;;
72949;SDS011;62720;45.710;9.590;2022-09-09T03:16:58;6.93;;;3.27;;
72949;SDS011;62720;45.710;9.590;2022-09-09T03:19:26;7.05;;;2.90;;
72949;SDS011;62720;45.710;9.590;2022-09-09T03:21:52;10.55;;;3.35;;
72949;SDS011;62720;45.710;9.590;2022-09-09T03:24:17;9.38;;;2.90;;
72949;SDS011;62720;45.710;9.590;2022-09-09T03:26:43;7.17;;;3.03;;
72949;SDS011;62720;45.710;9.590;2022-09-09T03:29:09;7.18;;;2.65;;
72949;SDS011;62720;45.710;9.590;2022-09-09T03:31:35;8.63;;;3.13;;
72949;SDS011;62720;45.710;9.590;2022-09-09T03:34:01;7.43;;;3.10;;
72949;SDS011;62720;45.710;9.590;2022-09-09T03:36:27;8.02;;;2.78;;
72949;SDS011;62720;45.710;9.590;2022-09-09T03:38:53;9.93;;;2.92;;
72949;SDS011;62720;45.710;9.590;2022-09-09T03:41:19;7.85;;;3.05;;
72949;SDS011;62720;45.710;9.590;2022-09-09T03:43:47;8.55;;;3.22;;
72949;SDS011;62720;45.710;9.590;2022-09-09T03:46:12;7.53;;;2.90;;
72949;SDS011;62720;45.710;9.590;2022-09-09T03:48:37;8.53;;;2.93;;
72949;SDS011;62720;45.710;9.590;2022-09-09T03:51:02;9.15;;;3.00;;
72949;SDS011;62720;45.710;9.590;2022-09-09T03:53:28;5.35;;;2.70;;
72949;SDS011;62720;45.710;9.590;2022-09-09T03:55:54;6.40;;;3.13;;
72949;SDS011;62720;45.710;9.590;2022-09-09T03:58:20;9.73;;;3.53;;
72949;SDS011;62720;45.710;9.590;2022-09-09T04:00:53;7.55;;;2.58;;
72949;SDS011;62720;45.710;9.590;2022-09-09T04:03:18;7.63;;;3.40;;
72949;SDS011;62720;45.710;9.590;2022-09-09T04:05:43;11.60;;;2.88;;
72949;SDS011;62720;45.710;9.590;2022-09-09T04:08:09;8.60;;;3.10;;
72949;SDS011;62720;45.710;9.590;2022-09-09T04:10:34;11.20;;;3.35;;
72949;SDS011;62720;45.710;9.590;2022-09-09T04:13:03;10.88;;;3.38;;
72949;SDS011;62720;45.710;9.590;2022-09-09T04:15:29;11.10;;;3.50;;
72949;SDS011;62720;45.710;9.590;2022-09-09T04:17:55;8.93;;;3.10;;
72949;SDS011;62720;45.710;9.590;2022-09-09T04:20:20;9.65;;;2.95;;
72949;SDS011;62720;45.710;9.590;2022-09-09T04:22:47;10.48;;;3.25;;
72949;SDS011;62720;45.710;9.590;2022-09-09T04:25:12;11.32;;;4.05;;
72949;SDS011;62720;45.710;9.590;2022-09-09T04:27:37;10.65;;;3.55;;
72949;SDS011;62720;45.710;9.590;2022-09-09T04:30:02;10.37;;;4.77;;
72949;SDS011;62720;45.710;9.590;2022-09-09T04:32:28;8.65;;;3.70;;
72949;SDS011;62720;45.710;9.590;2022-09-09T04:34:53;12.53;;;4.93;;
72949;SDS011;62720;45.710;9.590;2022-09-09T04:37:18;12.57;;;4.43;;
72949;SDS011;62720;45.710;9.590;2022-09-09T04:39:43;9.65;;;3.97;;
72949;SDS011;62720;45.710;9.590;2022-09-09T04:42:10;10.40;;;1.70;;
72949;SDS011;62720;45.710;9.590;2022-09-09T04:44:35;4.27;;;0.67;;
72949;SDS011;62720;45.710;9.590;2022-09-09T04:47:01;6.03;;;1.00;;
72949;SDS011;62720;45.710;9.590;2022-09-09T04:49:26;4.65;;;1.30;;
72949;SDS011;62720;45.710;9.590;2022-09-09T04:51:51;5.17;;;0.43;;
72949;SDS011;62720;45.710;9.590;2022-09-09T04:54:17;5.30;;;0.60;;
72949;SDS011;62720;45.710;9.590;2022-09-09T04:56:42;5.70;;;0.70;;
72949;SDS011;62720;45.710;9.590;2022-09-09T04:59:08;3.17;;;0.47;;
72949;SDS011;62720;45.710;9.590;2022-09-09T05:01:34;1.65;;;0.40;;
72949;SDS011;62720;45.710;9.590;2022-09-09T05:04:01;3.58;;;0.38;;
72949;SDS011;62720;45.710;9.590;2022-09-09T05:06:27;1.58;;;0.40;;
72949;SDS011;62720;45.710;9.590;2022-09-09T05:08:52;1.95;;;0.40;;
72949;SDS011;62720;45.710;9.590;2022-09-09T05:11:21;6.10;;;0.60;;
72949;SDS011;62720;45.710;9.590;2022-09-09T05:13:48;11.57;;;1.40;;
72949;SDS011;62720;45.710;9.590;2022-09-09T05:16:15;8.85;;;1.73;;
72949;SDS011;62720;45.710;9.590;2022-09-09T05:18:41;7.78;;;0.80;;
72949;SDS011;62720;45.710;9.590;2022-09-09T05:21:07;4.35;;;0.82;;
72949;SDS011;62720;45.710;9.590;2022-09-09T05:23:36;4.83;;;0.60;;
72949;SDS011;62720;45.710;9.590;2022-09-09T05:26:01;2.13;;;0.50;;
72949;SDS011;62720;45.710;9.590;2022-09-09T05:28:27;1.67;;;0.40;;
72949;SDS011;62720;45.710;9.590;2022-09-09T05:30:56;4.25;;;0.60;;
72949;SDS011;62720;45.710;9.590;2022-09-09T05:33:22;5.53;;;0.50;;
72949;SDS011;62720;45.710;9.590;2022-09-09T05:35:47;8.02;;;1.50;;
72949;SDS011;62720;45.710;9.590;2022-09-09T05:38:13;10.05;;;0.80;;
72949;SDS011;62720;45.710;9.590;2022-09-09T05:40:39;2.20;;;0.50;;
72949;SDS011;62720;45.710;9.590;2022-09-09T05:43:04;3.13;;;0.50;;
72949;SDS011;62720;45.710;9.590;2022-09-09T05:45:29;2.53;;;0.50;;
72949;SDS011;62720;45.710;9.590;2022-09-09T05:47:54;2.00;;;0.50;;
72949;SDS011;62720;45.710;9.590;2022-09-09T05:50:20;2.70;;;0.50;;
72949;SDS011;62720;45.710;9.590;2022-09-09T05:52:45;3.00;;;0.63;;
72949;SDS011;62720;45.710;9.590;2022-09-09T05:55:10;2.70;;;0.40;;
72949;SDS011;62720;45.710;9.590;2022-09-09T05:57:35;4.00;;;0.53;;
72949;SDS011;62720;45.710;9.590;2022-09-09T06:00:01;9.57;;;0.60;;
72949;SDS011;62720;45.710;9.590;2022-09-09T06:02:26;2.97;;;0.68;;
72949;SDS011;62720;45.710;9.590;2022-09-09T06:04:51;2.60;;;0.57;;
72949;SDS011;62720;45.710;9.590;2022-09-09T06:07:17;3.85;;;0.90;;
72949;SDS011;62720;45.710;9.590;2022-09-09T06:09:42;15.95;;;1.10;;
72949;SDS011;62720;45.710;9.590;2022-09-09T06:12:08;4.25;;;0.70;;
72949;SDS011;62720;45.710;9.590;2022-09-09T06:14:34;3.90;;;0.70;;
72949;SDS011;62720;45.710;9.590;2022-09-09T06:16:59;5.80;;;0.80;;
72949;SDS011;62720;45.710;9.590;2022-09-09T06:19:24;4.75;;;0.90;;
72949;SDS011;62720;45.710;9.590;2022-09-09T06:21:51;5.25;;;1.00;;
72949;SDS011;62720;45.710;9.590;2022-09-09T06:24:17;3.78;;;0.82;;
72949;SDS011;62720;45.710;9.590;2022-09-09T06:26:44;5.65;;;0.95;;
72949;SDS011;62720;45.710;9.590;2022-09-09T06:29:10;3.88;;;0.98;;
72949;SDS011;62720;45.710;9.590;2022-09-09T06:31:36;3.35;;;0.90;;
72949;SDS011;62720;45.710;9.590;2022-09-09T06:34:03;4.20;;;0.90;;
72949;SDS011;62720;45.710;9.590;2022-09-09T06:36:30;5.07;;;1.00;;
72949;SDS011;62720;45.710;9.590;2022-09-09T06:38:56;5.40;;;1.10;;
72949;SDS011;62720;45.710;9.590;2022-09-09T06:41:22;4.18;;;1.00;;
72949;SDS011;62720;45.710;9.590;2022-09-09T06:43:48;4.60;;;1.00;;
72949;SDS011;62720;45.710;9.590;2022-09-09T06:46:14;5.82;;;1.30;;
72949;SDS011;62720;45.710;9.590;2022-09-09T06:48:40;7.65;;;1.60;;
72949;SDS011;62720;45.710;9.590;2022-09-09T06:51:07;5.95;;;1.30;;
72949;SDS011;62720;45.710;9.590;2022-09-09T06:53:33;6.40;;;1.90;;
72949;SDS011;62720;45.710;9.590;2022-09-09T06:56:00;7.47;;;1.60;;
72949;SDS011;62720;45.710;9.590;2022-09-09T06:58:27;4.80;;;1.20;;
72949;SDS011;62720;45.710;9.590;2022-09-09T07:00:52;5.43;;;1.27;;
72949;SDS011;62720;45.710;9.590;2022-09-09T07:03:17;3.63;;;0.95;;
72949;SDS011;62720;45.710;9.590;2022-09-09T07:05:43;9.75;;;1.10;;
72949;SDS011;62720;45.710;9.590;2022-09-09T07:08:09;6.05;;;1.42;;
72949;SDS011;62720;45.710;9.590;2022-09-09T07:10:35;6.57;;;1.20;;
72949;SDS011;62720;45.710;9.590;2022-09-09T07:13:00;4.27;;;1.07;;
72949;SDS011;62720;45.710;9.590;2022-09-09T07:15:27;3.67;;;0.80;;
72949;SDS011;62720;45.710;9.590;2022-09-09T07:17:52;4.90;;;0.73;;
72949;SDS011;62720;45.710;9.590;2022-09-09T07:20:18;5.25;;;0.80;;
72949;SDS011;62720;45.710;9.590;2022-09-09T07:22:43;6.45;;;0.98;;
72949;SDS011;62720;45.710;9.590;2022-09-09T07:25:08;4.13;;;0.70;;
72949;SDS011;62720;45.710;9.590;2022-09-09T07:27:34;2.65;;;0.52;;
72949;SDS011;62720;45.710;9.590;2022-09-09T07:29:59;4.60;;;0.80;;
72949;SDS011;62720;45.710;9.590;2022-09-09T07:32:24;2.93;;;0.50;;
72949;SDS011;62720;45.710;9.590;2022-09-09T07:34:50;3.65;;;0.73;;
72949;SDS011;62720;45.710;9.590;2022-09-09T07:37:16;4.32;;;0.60;;
72949;SDS011;62720;45.710;9.590;2022-09-09T07:39:42;3.42;;;0.80;;
72949;SDS011;62720;45.710;9.590;2022-09-09T07:42:07;3.60;;;0.82;;
72949;SDS011;62720;45.710;9.590;2022-09-09T07:44:34;5.05;;;0.73;;
72949;SDS011;62720;45.710;9.590;2022-09-09T07:47:01;3.58;;;0.70;;
72949;SDS011;62720;45.710;9.590;2022-09-09T07:49:26;4.70;;;1.00;;
72949;SDS011;62720;45.710;9.590;2022-09-09T07:51:51;4.97;;;0.70;;
72949;SDS011;62720;45.710;9.590;2022-09-09T07:54:17;2.75;;;0.70;;
72949;SDS011;62720;45.710;9.590;2022-09-09T07:56:45;5.05;;;0.90;;
72949;SDS011;62720;45.710;9.590;2022-09-09T07:59:11;4.78;;;1.05;;
72949;SDS011;62720;45.710;9.590;2022-09-09T08:01:41;2.90;;;0.70;;
72949;SDS011;62720;45.710;9.590;2022-09-09T08:04:08;4.80;;;0.80;;
72949;SDS011;62720;45.710;9.590;2022-09-09T08:06:35;3.05;;;0.73;;
72949;SDS011;62720;45.710;9.590;2022-09-09T08:09:01;5.13;;;0.70;;
72949;SDS011;62720;45.710;9.590;2022-09-09T08:11:27;4.57;;;1.00;;
72949;SDS011;62720;45.710;9.590;2022-09-09T08:13:53;3.25;;;0.60;;
72949;SDS011;62720;45.710;9.590;2022-09-09T08:16:19;4.93;;;0.98;;
72949;SDS011;62720;45.710;9.590;2022-09-09T08:18:46;4.93;;;0.90;;
72949;SDS011;62720;45.710;9.590;2022-09-09T08:21:13;2.83;;;0.70;;
72949;SDS011;62720;45.710;9.590;2022-09-09T08:23:40;7.47;;;0.80;;
72949;SDS011;62720;45.710;9.590;2022-09-09T08:26:09;3.28;;;0.70;;
72949;SDS011;62720;45.710;9.590;2022-09-09T08:28:35;3.50;;;0.63;;
72949;SDS011;62720;45.710;9.590;2022-09-09T08:33:32;4.53;;;0.80;;
72949;SDS011;62720;45.710;9.590;2022-09-09T08:35:58;4.20;;;0.70;;
72949;SDS011;62720;45.710;9.590;2022-09-09T08:38:23;2.65;;;0.50;;
72949;SDS011;62720;45.710;9.590;2022-09-09T08:40:49;3.20;;;0.70;;
72949;SDS011;62720;45.710;9.590;2022-09-09T08:43:18;3.45;;;0.75;;
72949;SDS011;62720;45.710;9.590;2022-09-09T08:45:50;2.65;;;0.70;;
72949;SDS011;62720;45.710;9.590;2022-09-09T08:49:02;5.13;;;0.80;;
72949;SDS011;62720;45.710;9.590;2022-09-09T08:51:07;3.28;;;1.00;;
72949;SDS011;62720;45.710;9.590;2022-09-09T08:53:41;4.30;;;0.82;;
72949;SDS011;62720;45.710;9.590;2022-09-09T08:56:09;4.30;;;0.82;;
72949;SDS011;62720;45.710;9.590;2022-09-09T08:58:39;4.72;;;0.95;;
72949;SDS011;62720;45.710;9.590;2022-09-09T09:11:34;4.50;;;0.90;;
72949;SDS011;62720;45.710;9.590;2022-09-09T09:14:03;3.53;;;0.80;;
72949;SDS011;62720;45.710;9.590;2022-09-09T09:19:08;3.70;;;1.00;;
72949;SDS011;62720;45.710;9.590;2022-09-09T09:21:41;4.07;;;0.93;;
72949;SDS011;62720;45.710;9.590;2022-09-09T09:24:19;3.40;;;0.60;;
72949;SDS011;62720;45.710;9.590;2022-09-09T09:26:44;4.20;;;0.70;;
72949;SDS011;62720;45.710;9.590;2022-09-09T09:29:11;2.22;;;0.60;;
72949;SDS011;62720;45.710;9.590;2022-09-09T09:31:37;5.53;;;0.60;;
72949;SDS011;62720;45.710;9.590;2022-09-09T09:34:02;4.03;;;1.20;;
72949;SDS011;62720;45.710;9.590;2022-09-09T09:36:35;3.00;;;0.70;;
72949;SDS011;62720;45.710;9.590;2022-09-09T09:39:02;5.13;;;0.80;;
72949;SDS011;62720;45.710;9.590;2022-09-09T09:43:59;4.47;;;0.90;;
72949;SDS011;62720;45.710;9.590;2022-09-09T09:46:25;5.55;;;0.98;;
72949;SDS011;62720;45.710;9.590;2022-09-09T09:49:01;2.97;;;0.70;;
72949;SDS011;62720;45.710;9.590;2022-09-09T09:51:27;3.67;;;1.00;;
72949;SDS011;62720;45.710;9.590;2022-09-09T09:53:53;6.65;;;0.80;;
72949;SDS011;62720;45.710;9.590;2022-09-09T09:56:25;5.03;;;0.73;;
72949;SDS011;62720;45.710;9.590;2022-09-09T09:58:51;4.18;;;0.90;;
72949;SDS011;62720;45.710;9.590;2022-09-09T10:01:22;10.82;;;1.33;;
72949;SDS011;62720;45.710;9.590;2022-09-09T10:03:53;3.92;;;0.90;;
72949;SDS011;62720;45.710;9.590;2022-09-09T10:06:39;7.57;;;0.70;;
72949;SDS011;62720;45.710;9.590;2022-09-09T10:09:26;11.07;;;1.08;;
72949;SDS011;62720;45.710;9.590;2022-09-09T10:14:20;4.07;;;0.75;;
72949;SDS011;62720;45.710;9.590;2022-09-09T10:19:19;4.30;;;0.70;;
72949;SDS011;62720;45.710;9.590;2022-09-09T10:37:14;3.22;;;0.55;;
72949;SDS011;62720;45.710;9.590;2022-09-09T10:39:42;2.38;;;0.50;;
72949;SDS011;62720;45.710;9.590;2022-09-09T10:42:14;2.25;;;0.63;;
72949;SDS011;62720;45.710;9.590;2022-09-09T10:52:46;1.33;;;0.40;;
72949;SDS011;62720;45.710;9.590;2022-09-09T10:57:42;2.97;;;0.70;;
72949;SDS011;62720;45.710;9.590;2022-09-09T11:02:34;3.37;;;0.50;;
72949;SDS011;62720;45.710;9.590;2022-09-09T11:07:39;2.80;;;0.60;;
72949;SDS011;62720;45.710;9.590;2022-09-09T11:10:11;3.38;;;0.40;;
72949;SDS011;62720;45.710;9.590;2022-09-09T11:12:38;3.15;;;0.73;;
72949;SDS011;62720;45.710;9.590;2022-09-09T11:17:33;1.88;;;0.52;;
72949;SDS011;62720;45.710;9.590;2022-09-09T11:20:00;6.68;;;0.60;;
72949;SDS011;62720;45.710;9.590;2022-09-09T11:22:33;1.98;;;0.60;;
72949;SDS011;62720;45.710;9.590;2022-09-09T11:27:46;2.15;;;0.50;;
72949;SDS011;62720;45.710;9.590;2022-09-09T11:30:20;1.88;;;0.55;;
72949;SDS011;62720;45.710;9.590;2022-09-09T11:40:23;4.18;;;0.57;;
72949;SDS011;62720;45.710;9.590;2022-09-09T11:42:59;7.22;;;1.35;;
72949;SDS011;62720;45.710;9.590;2022-09-09T11:45:26;3.17;;;0.60;;
72949;SDS011;62720;45.710;9.590;2022-09-09T11:47:57;2.85;;;0.63;;
72949;SDS011;62720;45.710;9.590;2022-09-09T11:52:48;3.70;;;0.60;;
72949;SDS011;62720;45.710;9.590;2022-09-09T11:57:48;5.88;;;0.90;;
72949;SDS011;62720;45.710;9.590;2022-09-09T12:02:59;5.80;;;0.80;;
72949;SDS011;62720;45.710;9.590;2022-09-09T12:05:34;6.27;;;0.87;;
72949;SDS011;62720;45.710;9.590;2022-09-09T12:08:01;5.45;;;0.60;;
72949;SDS011;62720;45.710;9.590;2022-09-09T12:12:53;4.63;;;0.80;;
72949;SDS011;62720;45.710;9.590;2022-09-09T12:15:20;37.65;;;2.65;;
72949;SDS011;62720;45.710;9.590;2022-09-09T12:17:47;14.02;;;1.13;;
72949;SDS011;62720;45.710;9.590;2022-09-09T12:23:15;6.28;;;1.10;;
72949;SDS011;62720;45.710;9.590;2022-09-09T12:28:48;3.75;;;0.90;;
72949;SDS011;62720;45.710;9.590;2022-09-09T12:31:23;3.05;;;0.90;;
72949;SDS011;62720;45.710;9.590;2022-09-09T12:33:50;3.15;;;0.73;;
72949;SDS011;62720;45.710;9.590;2022-09-09T12:36:21;3.50;;;0.60;;
72949;SDS011;62720;45.710;9.590;2022-09-09T12:38:47;3.08;;;0.70;;
72949;SDS011;62720;45.710;9.590;2022-09-09T12:41:23;3.92;;;0.77;;
72949;SDS011;62720;45.710;9.590;2022-09-09T12:43:49;2.97;;;0.70;;
72949;SDS011;62720;45.710;9.590;2022-09-09T12:46:35;2.00;;;0.50;;
72949;SDS011;62720;45.710;9.590;2022-09-09T12:49:01;4.10;;;1.02;;
72949;SDS011;62720;45.710;9.590;2022-09-09T12:51:30;2.65;;;0.70;;
72949;SDS011;62720;45.710;9.590;2022-09-09T12:53:56;5.22;;;0.93;;
72949;SDS011;62720;45.710;9.590;2022-09-09T12:56:26;3.55;;;0.70;;
72949;SDS011;62720;45.710;9.590;2022-09-09T12:58:53;3.40;;;0.82;;
72949;SDS011;62720;45.710;9.590;2022-09-09T13:01:26;5.35;;;0.93;;
72949;SDS011;62720;45.710;9.590;2022-09-09T13:03:52;3.20;;;0.93;;
72949;SDS011;62720;45.710;9.590;2022-09-09T13:06:27;4.45;;;0.93;;
72949;SDS011;62720;45.710;9.590;2022-09-09T13:08:53;5.03;;;0.85;;
72949;SDS011;62720;45.710;9.590;2022-09-09T13:11:26;5.15;;;1.20;;
72949;SDS011;62720;45.710;9.590;2022-09-09T13:13:54;4.90;;;0.70;;
72949;SDS011;62720;45.710;9.590;2022-09-09T13:16:20;5.95;;;0.90;;
72949;SDS011;62720;45.710;9.590;2022-09-09T13:18:46;4.13;;;1.02;;
72949;SDS011;62720;45.710;9.590;2022-09-09T13:21:11;13.48;;;1.20;;
72949;SDS011;62720;45.710;9.590;2022-09-09T13:23:37;4.35;;;0.90;;
72949;SDS011;62720;45.710;9.590;2022-09-09T13:26:07;5.80;;;1.10;;
72949;SDS011;62720;45.710;9.590;2022-09-09T13:28:44;5.82;;;1.25;;
72949;SDS011;62720;45.710;9.590;2022-09-09T13:31:21;6.47;;;1.27;;
72949;SDS011;62720;45.710;9.590;2022-09-09T13:33:47;7.00;;;1.35;;
72949;SDS011;62720;45.710;9.590;2022-09-09T13:36:12;4.30;;;1.20;;
72949;SDS011;62720;45.710;9.590;2022-09-09T13:41:19;5.18;;;1.40;;
72949;SDS011;62720;45.710;9.590;2022-09-09T13:43:46;6.10;;;1.15;;
72949;SDS011;62720;45.710;9.590;2022-09-09T13:46:24;4.53;;;1.10;;
72949;SDS011;62720;45.710;9.590;2022-09-09T13:49:00;6.75;;;1.23;;
72949;SDS011;62720;45.710;9.590;2022-09-09T13:54:00;7.70;;;1.73;;
72949;SDS011;62720;45.710;9.590;2022-09-09T13:56:25;11.68;;;1.38;;
72949;SDS011;62720;45.710;9.590;2022-09-09T13:58:51;7.53;;;1.52;;
72949;SDS011;62720;45.710;9.590;2022-09-09T14:01:16;8.27;;;1.35;;
72949;SDS011;62720;45.710;9.590;2022-09-09T14:03:42;5.97;;;1.10;;
72949;SDS011;62720;45.710;9.590;2022-09-09T14:06:08;6.40;;;1.38;;
72949;SDS011;62720;45.710;9.590;2022-09-09T14:08:34;5.15;;;1.40;;
72949;SDS011;62720;45.710;9.590;2022-09-09T14:11:02;3.95;;;1.00;;
72949;SDS011;62720;45.710;9.590;2022-09-09T14:13:27;5.78;;;1.08;;
72949;SDS011;62720;45.710;9.590;2022-09-09T14:15:53;5.15;;;1.20;;
72949;SDS011;62720;45.710;9.590;2022-09-09T14:18:18;6.50;;;1.15;;
72949;SDS011;62720;45.710;9.590;2022-09-09T14:20:44;4.75;;;1.10;;
72949;SDS011;62720;45.710;9.590;2022-09-09T14:23:10;3.83;;;1.10;;
72949;SDS011;62720;45.710;9.590;2022-09-09T14:25:35;6.60;;;1.20;;
72949;SDS011;62720;45.710;9.590;2022-09-09T14:28:01;6.38;;;1.20;;
72949;SDS011;62720;45.710;9.590;2022-09-09T14:30:27;5.72;;;1.23;;
72949;SDS011;62720;45.710;9.590;2022-09-09T14:32:52;5.40;;;1.13;;
72949;SDS011;62720;45.710;9.590;2022-09-09T14:35:17;12.83;;;1.60;;
72949;SDS011;62720;45.710;9.590;2022-09-09T14:37:43;6.93;;;1.15;;
72949;SDS011;62720;45.710;9.590;2022-09-09T14:40:09;4.95;;;1.13;;
72949;SDS011;62720;45.710;9.590;2022-09-09T14:42:36;3.97;;;1.33;;
72949;SDS011;62720;45.710;9.590;2022-09-09T14:45:01;4.03;;;1.10;;
72949;SDS011;62720;45.710;9.590;2022-09-09T14:47:26;4.82;;;1.10;;
72949;SDS011;62720;45.710;9.590;2022-09-09T14:49:52;5.32;;;1.23;;
72949;SDS011;62720;45.710;9.590;2022-09-09T14:52:18;32.53;;;2.05;;
72949;SDS011;62720;45.710;9.590;2022-09-09T14:54:43;7.53;;;1.20;;
72949;SDS011;62720;45.710;9.590;2022-09-09T14:57:08;5.60;;;1.20;;
72949;SDS011;62720;45.710;9.590;2022-09-09T14:59:33;5.13;;;1.10;;
72949;SDS011;62720;45.710;9.590;2022-09-09T15:01:59;6.30;;;1.20;;
72949;SDS011;62720;45.710;9.590;2022-09-09T15:04:29;11.10;;;1.20;;
72949;SDS011;62720;45.710;9.590;2022-09-09T15:06:54;5.72;;;1.38;;
72949;SDS011;62720;45.710;9.590;2022-09-09T15:09:19;8.07;;;1.30;;
72949;SDS011;62720;45.710;9.590;2022-09-09T15:11:44;9.45;;;1.30;;
72949;SDS011;62720;45.710;9.590;2022-09-09T15:14:10;11.63;;;1.08;;
72949;SDS011;62720;45.710;9.590;2022-09-09T15:16:37;4.13;;;0.95;;
72949;SDS011;62720;45.710;9.590;2022-09-09T15:19:03;17.05;;;1.52;;
72949;SDS011;62720;45.710;9.590;2022-09-09T15:21:32;6.43;;;1.10;;
72949;SDS011;62720;45.710;9.590;2022-09-09T15:23:58;3.78;;;1.00;;
72949;SDS011;62720;45.710;9.590;2022-09-09T15:26:23;4.40;;;1.08;;
72949;SDS011;62720;45.710;9.590;2022-09-09T15:28:49;6.10;;;1.15;;
72949;SDS011;62720;45.710;9.590;2022-09-09T15:31:19;11.55;;;1.38;;
72949;SDS011;62720;45.710;9.590;2022-09-09T15:33:48;4.90;;;1.30;;
72949;SDS011;62720;45.710;9.590;2022-09-09T15:36:15;4.32;;;1.10;;
72949;SDS011;62720;45.710;9.590;2022-09-09T15:38:40;8.05;;;1.38;;
72949;SDS011;62720;45.710;9.590;2022-09-09T15:41:06;5.28;;;1.30;;
72949;SDS011;62720;45.710;9.590;2022-09-09T15:43:31;8.03;;;1.53;;
72949;SDS011;62720;45.710;9.590;2022-09-09T15:45:58;5.43;;;1.23;;
72949;SDS011;62720;45.710;9.590;2022-09-09T15:48:30;7.05;;;1.15;;
72949;SDS011;62720;45.710;9.590;2022-09-09T15:51:03;4.57;;;1.20;;
72949;SDS011;62720;45.710;9.590;2022-09-09T15:53:29;10.55;;;1.70;;
72949;SDS011;62720;45.710;9.590;2022-09-09T15:55:55;18.08;;;1.70;;
72949;SDS011;62720;45.710;9.590;2022-09-09T15:58:20;7.72;;;1.40;;
72949;SDS011;62720;45.710;9.590;2022-09-09T16:00:46;5.93;;;1.05;;
72949;SDS011;62720;45.710;9.590;2022-09-09T16:03:11;5.53;;;1.10;;
72949;SDS011;62720;45.710;9.590;2022-09-09T16:05:37;8.98;;;1.83;;
72949;SDS011;62720;45.710;9.590;2022-09-09T16:08:03;6.53;;;1.08;;
72949;SDS011;62720;45.710;9.590;2022-09-09T16:10:29;5.18;;;1.40;;
72949;SDS011;62720;45.710;9.590;2022-09-09T16:12:55;4.00;;;1.13;;
72949;SDS011;62720;45.710;9.590;2022-09-09T16:15:21;4.57;;;1.50;;
72949;SDS011;62720;45.710;9.590;2022-09-09T16:17:48;10.45;;;1.80;;
72949;SDS011;62720;45.710;9.590;2022-09-09T16:20:13;4.53;;;1.23;;
72949;SDS011;62720;45.710;9.590;2022-09-09T16:22:39;7.07;;;1.35;;
72949;SDS011;62720;45.710;9.590;2022-09-09T16:25:05;6.20;;;1.00;;
72949;SDS011;62720;45.710;9.590;2022-09-09T16:27:30;3.95;;;1.00;;
72949;SDS011;62720;45.710;9.590;2022-09-09T16:29:56;7.88;;;1.02;;
72949;SDS011;62720;45.710;9.590;2022-09-09T16:32:21;3.95;;;1.13;;
72949;SDS011;62720;45.710;9.590;2022-09-09T16:34:47;6.47;;;1.20;;
72949;SDS011;62720;45.710;9.590;2022-09-09T16:37:12;6.43;;;1.10;;
72949;SDS011;62720;45.710;9.590;2022-09-09T16:39:37;6.50;;;1.25;;
72949;SDS011;62720;45.710;9.590;2022-09-09T16:42:03;3.17;;;0.80;;
72949;SDS011;62720;45.710;9.590;2022-09-09T16:44:28;4.80;;;1.00;;
72949;SDS011;62720;45.710;9.590;2022-09-09T16:46:53;3.80;;;1.10;;
72949;SDS011;62720;45.710;9.590;2022-09-09T16:49:19;5.13;;;1.13;;
72949;SDS011;62720;45.710;9.590;2022-09-09T16:51:46;4.15;;;1.02;;
72949;SDS011;62720;45.710;9.590;2022-09-09T16:54:12;4.07;;;1.10;;
72949;SDS011;62720;45.710;9.590;2022-09-09T16:56:39;7.72;;;1.40;;
72949;SDS011;62720;45.710;9.590;2022-09-09T16:59:08;3.97;;;1.02;;
72949;SDS011;62720;45.710;9.590;2022-09-09T17:01:35;4.25;;;1.13;;
72949;SDS011;62720;45.710;9.590;2022-09-09T17:04:04;4.45;;;1.10;;